Rockwood, TN (37854)

11:39 AM EST on February 27, 2017 (GMT -0500)
Rockwood, TN | | Change Station

Elev 988 ft 35.87 °N, 84.66 °W | Updated 3 minutes ago

Rain
Rain
44.4 °F
Feels Like 44 °F
N
0.0
Wind Variable Wind from ENE
Gusts 1.0 mph

Today
High -- | Low -- °F
--% Chance of Precip.
Yesterday
High -- | Low -- °F
Precip. -- in
Pressure 30.29 in
Visibility 10.0 miles
Clouds Overcast 6500 ft
Windchill 44 °F
Dew Point 31 °F
Humidity 60%
Rainfall 0.00 in
Snow Depth Not available.
7:11 AM 6:32 PM
New Moon, 1% visible
METAR KCSV 271553Z AUTO 19014G25KT 10SM OVC065 11/M03 A3029 RMK AO2 SLP256 T01111028
Pressure 30.29 in
Visibility 10.0 miles
Clouds Overcast 6500 ft
Windchill 44 °F
Dew Point 31 °F
Humidity 60%
Rainfall 0.00 in
Snow Depth Not available.
7:11 AM 6:32 PM
New Moon, 1% visible
METAR KCSV 271553Z AUTO 19014G25KT 10SM OVC065 11/M03 A3029 RMK AO2 SLP256 T01111028

Get Your Daily Forecast Email!

Thanks for signing up!

Be on the lookout for a verification email in your inbox.

You'll start receiving the daily forecast at 8 AM.

×

10-Day Weather Forecast

Almanac

Astronomy

Feb. 27, 2017 Rise Set
Actual Time
Civil Twilight
Nautical Twilight
Astronomical Twilight
Moon
Length of Visible Light
Length of Day
Tomorrow will be .
, % of the Moon is Illuminated

Today's Extremes

State Highs State Lows

Community

WunderPhotos

Upload Photos

1,962,540 photos uploaded!

WunderBlog® & News

Nearby

Air Quality

  Air Quality AQ Index Pollutant
Not available.

Snow Depth

Station Depth Elevation

Earthquake Activity

City Distance Mag. Time & Date
Minimum magnitude displayed is 2.5.

Coastal Water Temperatures

Place Temperature

Stations

Nearby Weather Stations

Station Location Temp. Windchill Dew Point Humidity Wind Precip. Elev Updated Type
                   

Watches & Warnings

There are currently no watches in effect.